Terminal Aerodrome Forecast
Issued by NWS Jackson, MS

Home | Current Version | Previous Version | Text Only | Print | Product List | Glossary On
Versions: 1 2 3 4 5 6 7 8 9 10 11 12 13 14 15 16
000
FTUS44 KJAN 241700 RRA
TAFGLH
TAF
KGLH 241742Z 2418/2518 03003KT P6SM BKN020
     FM242000 36010KT P6SM FEW030 SCT050
     FM250100 01007KT P6SM SKC
     FM251000 35003KT 5SM BR SKC=

USA.gov is the U.S. government's official web portal to all federal, state and local government web resources and services.